createdAt,value
2019-04-28T00:02:01.517Z,1.07
2019-04-28T00:04:28.830Z,1.50
2019-04-28T00:06:56.456Z,0.90
2019-04-28T00:09:23.747Z,0.57
2019-04-28T00:11:51.718Z,0.80
2019-04-28T00:14:19.038Z,0.78
2019-04-28T00:16:47.356Z,0.50
2019-04-28T00:19:14.372Z,0.65
2019-04-28T00:21:51.557Z,0.42
2019-04-28T00:24:44.057Z,0.82
2019-04-28T00:27:13.526Z,0.50
2019-04-28T00:29:45.582Z,0.90
2019-04-28T00:32:11.242Z,0.42
2019-04-28T00:34:41.042Z,0.62
2019-04-28T00:37:14.686Z,0.82
2019-04-28T00:39:41.870Z,0.60
2019-04-28T00:42:08.788Z,0.65
2019-04-28T00:44:35.929Z,0.68
2019-04-28T00:47:03.615Z,0.47
2019-04-28T00:49:46.123Z,1.20
2019-04-28T00:52:13.589Z,1.12
2019-04-28T00:54:42.045Z,0.78
2019-04-28T00:57:11.574Z,1.30
2019-04-28T00:59:50.891Z,0.90
2019-04-28T01:02:14.532Z,1.50
2019-04-28T01:04:41.609Z,0.88
2019-04-28T01:07:08.853Z,0.90
2019-04-28T01:09:36.036Z,1.20
2019-04-28T01:12:04.084Z,1.30
2019-04-28T01:14:32.069Z,1.25
2019-04-28T01:17:05.800Z,1.67
2019-04-28T01:19:34.761Z,1.12
2019-04-28T01:22:11.611Z,1.20
2019-04-28T01:24:39.834Z,1.60
2019-04-28T01:27:10.512Z,1.12
2019-04-28T01:29:40.304Z,1.20
2019-04-28T01:32:14.660Z,1.30
2019-04-28T01:34:42.202Z,1.57
2019-04-28T01:37:09.779Z,1.52
2019-04-28T01:39:36.952Z,1.55
2019-04-28T01:42:04.078Z,1.47
2019-04-28T01:44:31.094Z,1.42
2019-04-28T01:46:59.655Z,1.25
2019-04-28T01:49:29.360Z,1.40
2019-04-28T01:51:57.627Z,1.40
2019-04-28T01:54:25.257Z,1.70
2019-04-28T01:56:52.783Z,1.62
2019-04-28T01:59:20.117Z,1.60
2019-04-28T02:01:47.753Z,1.50
2019-04-28T02:04:14.868Z,1.60
2019-04-28T02:06:42.547Z,1.82
2019-04-28T02:09:10.081Z,1.70
2019-04-28T02:11:37.288Z,1.87
2019-04-28T02:14:04.530Z,1.92
2019-04-28T02:16:31.751Z,1.80
2019-04-28T02:18:59.722Z,1.70
2019-04-28T02:21:39.924Z,1.65
2019-04-28T02:24:30.438Z,2.08
2019-04-28T02:26:57.727Z,1.85
2019-04-28T02:29:24.949Z,1.82
2019-04-28T02:31:52.538Z,2.47
2019-04-28T02:34:21.149Z,1.95
2019-04-28T02:36:50.614Z,2.20
2019-04-28T02:39:20.545Z,2.20
2019-04-28T02:41:47.573Z,1.85
2019-04-28T02:44:15.016Z,2.27
2019-04-28T02:46:42.225Z,1.92
2019-04-28T02:49:11.259Z,2.25
2019-04-28T02:51:45.278Z,2.20
2019-04-28T02:54:12.529Z,1.80
2019-04-28T02:56:43.424Z,2.10
2019-04-28T02:59:10.956Z,1.80
2019-04-28T03:01:37.623Z,1.70
2019-04-28T03:04:04.846Z,1.80
2019-04-28T03:06:32.502Z,1.62
2019-04-28T03:09:00.272Z,1.65
2019-04-28T03:11:27.639Z,1.40
2019-04-28T03:13:54.874Z,1.40
2019-04-28T03:16:23.197Z,1.37
2019-04-28T03:18:51.393Z,0.95
2019-04-28T03:21:21.424Z,1.50
2019-04-28T03:23:51.584Z,0.80
2019-04-28T03:26:42.488Z,1.40
2019-04-28T03:29:27.587Z,1.40
2019-04-28T03:32:22.843Z,0.90
2019-04-28T03:34:45.534Z,0.95
2019-04-28T03:37:12.549Z,1.30
2019-04-28T03:39:40.492Z,0.93
2019-04-28T03:42:07.794Z,1.00
2019-04-28T03:44:36.042Z,1.00
2019-04-28T03:47:03.264Z,0.82
2019-04-28T03:49:31.429Z,1.07
2019-04-28T03:52:00.405Z,0.85
2019-04-28T03:54:27.497Z,0.90
2019-04-28T03:56:54.625Z,0.80
2019-04-28T03:59:21.772Z,0.62
2019-04-28T04:01:58.516Z,0.93
2019-04-28T04:04:17.836Z,1.00
2019-04-28T04:06:45.210Z,0.70
2019-04-28T04:09:14.741Z,0.53
2019-04-28T04:11:45.998Z,0.98
2019-04-28T04:14:31.012Z,0.90
2019-04-28T04:17:13.878Z,0.72
2019-04-28T04:19:41.790Z,0.88
2019-04-28T04:22:11.287Z,1.10
2019-04-28T04:24:40.349Z,1.22
2019-04-28T04:27:07.794Z,0.80
2019-04-28T04:29:36.644Z,0.90
2019-04-28T04:32:15.522Z,0.82
2019-04-28T04:34:32.969Z,1.00
2019-04-28T04:37:00.786Z,0.90
2019-04-28T04:39:30.152Z,0.85
2019-04-28T04:41:57.108Z,1.00
2019-04-28T04:44:25.045Z,1.10
2019-04-28T04:46:52.151Z,0.82
2019-04-28T04:49:21.746Z,0.80
2019-04-28T04:51:50.754Z,0.88
2019-04-28T04:54:17.128Z,1.10
2019-04-28T04:56:44.289Z,1.00
2019-04-28T04:59:11.340Z,1.10
2019-04-28T05:01:57.120Z,0.98
2019-04-28T05:04:46.260Z,1.30
2019-04-28T05:07:13.446Z,1.20
2019-04-28T05:09:40.822Z,1.00
2019-04-28T05:12:09.716Z,1.25
2019-04-28T05:14:37.208Z,0.90
2019-04-28T05:17:06.232Z,1.17
2019-04-28T05:19:33.693Z,1.50
2019-04-28T05:22:00.947Z,1.40
2019-04-28T05:24:50.356Z,1.95
2019-04-28T05:27:17.394Z,1.30
2019-04-28T05:29:45.196Z,1.20
2019-04-28T05:32:12.705Z,1.20
2019-04-28T05:34:46.840Z,1.30
2019-04-28T05:37:10.817Z,1.37
2019-04-28T05:39:40.305Z,1.50
2019-04-28T05:42:07.086Z,1.30
2019-04-28T05:44:34.408Z,1.35
2019-04-28T05:47:01.423Z,1.20
2019-04-28T05:49:45.239Z,1.30
2019-04-28T05:52:50.178Z,1.37
2019-04-28T05:55:20.999Z,1.35
2019-04-28T05:57:53.509Z,1.25
2019-04-28T06:00:31.227Z,1.30
2019-04-28T06:03:00.623Z,1.20
2019-04-28T06:05:27.619Z,1.10
2019-04-28T06:08:10.504Z,1.12
2019-04-28T06:10:39.792Z,1.15
2019-04-28T06:13:06.710Z,1.00
2019-04-28T06:15:35.601Z,1.30
2019-04-28T06:18:02.849Z,1.22
2019-04-28T06:20:30.390Z,1.30
2019-04-28T06:22:57.430Z,1.42
2019-04-28T06:25:24.722Z,1.57
2019-04-28T06:27:51.859Z,1.40
2019-04-28T06:30:19.453Z,1.57
2019-04-28T06:32:46.572Z,1.72
2019-04-28T06:35:13.796Z,1.90
2019-04-28T06:37:40.968Z,1.40
2019-04-28T06:40:08.604Z,1.40
2019-04-28T06:42:36.209Z,1.40
2019-04-28T06:45:03.731Z,1.50
2019-04-28T06:47:31.144Z,1.10
2019-04-28T06:49:58.255Z,1.40
2019-04-28T06:52:25.392Z,0.98
2019-04-28T06:54:52.695Z,1.30
2019-04-28T06:57:20.484Z,1.50
2019-04-28T06:59:47.432Z,1.40
2019-04-28T07:02:15.008Z,1.32
2019-04-28T07:04:42.181Z,1.40
2019-04-28T07:07:09.523Z,1.60
2019-04-28T07:09:36.796Z,1.40
2019-04-28T07:12:04.896Z,1.00
2019-04-28T07:14:31.973Z,1.00
2019-04-28T07:17:01.232Z,1.20
2019-04-28T07:19:28.359Z,1.27
2019-04-28T07:22:22.927Z,1.27
2019-04-28T07:24:50.156Z,0.93
2019-04-28T07:27:17.944Z,1.10
2019-04-28T07:29:45.100Z,1.20
2019-04-28T07:32:12.255Z,1.20
2019-04-28T07:34:41.062Z,1.00
2019-04-28T07:37:09.435Z,1.30
2019-04-28T07:39:37.827Z,0.75
2019-04-28T07:42:05.013Z,0.80
2019-04-28T07:44:32.093Z,1.12
2019-04-28T07:46:59.352Z,0.80
2019-04-28T07:49:26.716Z,1.15
2019-04-28T07:52:25.531Z,0.90
2019-04-28T07:54:52.930Z,1.15
2019-04-28T07:57:20.083Z,0.98
2019-04-28T07:59:47.660Z,1.00
2019-04-28T08:02:14.808Z,0.80
2019-04-28T08:04:42.364Z,1.10
2019-04-28T08:07:10.004Z,0.90
2019-04-28T08:09:37.184Z,0.90
2019-04-28T08:12:04.768Z,0.95
2019-04-28T08:14:32.311Z,1.10
2019-04-28T08:16:59.424Z,1.20
2019-04-28T08:19:26.564Z,1.20
2019-04-28T08:21:54.084Z,1.30
2019-04-28T08:24:21.694Z,0.88
2019-04-28T08:26:48.875Z,1.10
2019-04-28T08:29:16.118Z,0.80
2019-04-28T08:31:53.595Z,1.17
2019-04-28T08:34:21.783Z,1.20
2019-04-28T08:36:48.899Z,0.70
2019-04-28T08:39:16.096Z,0.98
2019-04-28T08:41:43.304Z,1.07
2019-04-28T08:44:10.480Z,0.60
2019-04-28T08:46:37.736Z,0.85
2019-04-28T08:49:04.991Z,0.55
2019-04-28T08:51:32.196Z,0.60
2019-04-28T08:53:59.897Z,0.88
2019-04-28T08:56:26.951Z,0.88
2019-04-28T08:58:55.194Z,1.15
2019-04-28T09:01:22.194Z,1.00
2019-04-28T09:03:50.638Z,0.90
2019-04-28T09:06:18.315Z,1.02
2019-04-28T09:08:45.887Z,0.80
2019-04-28T09:11:14.419Z,1.15
2019-04-28T09:18:36.514Z,0.82
2019-04-28T09:21:03.645Z,0.88
2019-04-28T09:23:31.270Z,0.98
2019-04-28T09:25:58.888Z,0.90
2019-04-28T09:28:26.189Z,1.10
2019-04-28T09:30:53.352Z,0.68
2019-04-28T09:33:20.535Z,0.70
2019-04-28T09:35:47.547Z,0.53
2019-04-28T09:38:14.722Z,0.70
2019-04-28T09:48:28.111Z,0.62
2019-04-28T09:50:55.265Z,1.10
2019-04-28T09:53:24.324Z,1.00
2019-04-28T09:55:51.913Z,1.12
2019-04-28T09:58:23.823Z,1.52
2019-04-28T10:00:52.479Z,1.42
2019-04-28T10:03:25.189Z,1.22
2019-04-28T10:05:56.940Z,1.30
2019-04-28T10:08:24.500Z,1.27
2019-04-28T10:10:56.050Z,1.00
2019-04-28T10:32:59.166Z,0.80
2019-04-28T10:35:33.720Z,0.60
2019-04-28T10:38:06.500Z,0.90
2019-04-28T10:41:08.829Z,1.25
2019-04-28T10:43:42.708Z,0.90
2019-04-28T10:46:09.740Z,0.80
2019-04-28T10:48:36.915Z,1.00
2019-04-28T10:51:05.182Z,0.90
2019-04-28T10:53:33.033Z,1.00
2019-04-28T10:56:01.869Z,0.90
2019-04-28T10:58:29.291Z,1.07
2019-04-28T11:00:57.494Z,0.95
2019-04-28T11:03:24.587Z,1.00
2019-04-28T11:05:52.904Z,1.00
2019-04-28T11:08:39.254Z,1.20
2019-04-28T11:11:14.256Z,0.90
2019-04-28T11:13:41.848Z,0.80
2019-04-28T11:16:09.909Z,0.82
2019-04-28T11:18:37.259Z,0.75
2019-04-28T11:21:08.023Z,0.80
2019-04-28T11:23:35.083Z,0.70
2019-04-28T11:26:03.712Z,0.70
2019-04-28T11:28:30.963Z,0.80
2019-04-28T11:30:58.194Z,0.50
2019-04-28T11:33:52.675Z,0.70
2019-04-28T11:36:20.651Z,0.80
2019-04-28T11:38:47.899Z,0.62
2019-04-28T11:41:15.515Z,0.60
2019-04-28T11:43:43.001Z,0.53
2019-04-28T11:46:11.935Z,0.70
2019-04-28T11:48:39.109Z,0.85
2019-04-28T11:51:08.344Z,0.60
2019-04-28T11:53:35.390Z,0.68
2019-04-28T11:56:02.653Z,0.80
2019-04-28T11:58:29.884Z,0.80
2019-04-28T12:00:58.463Z,0.88
2019-04-28T12:03:25.400Z,0.80
2019-04-28T12:05:53.077Z,1.00
2019-04-28T12:08:20.194Z,0.90
2019-04-28T12:11:09.485Z,0.90
2019-04-28T12:13:49.204Z,0.80
2019-04-28T12:16:27.068Z,0.97
2019-04-28T12:19:03.987Z,0.90
2019-04-28T12:21:31.386Z,1.10
2019-04-28T12:23:58.542Z,0.60
2019-04-28T12:26:26.397Z,1.00
2019-04-28T12:28:54.024Z,1.02
2019-04-28T12:31:21.504Z,1.30
2019-04-28T12:33:48.667Z,0.80
2019-04-28T12:36:15.814Z,1.00
2019-04-28T12:41:10.262Z,0.90
2019-04-28T12:43:40.060Z,1.30
2019-04-28T12:46:07.401Z,0.93
2019-04-28T12:48:34.605Z,1.07
2019-04-28T12:51:01.652Z,1.07
2019-04-28T12:55:52.266Z,1.00
2019-04-28T12:58:19.439Z,0.85
2019-04-28T13:01:21.001Z,0.78
2019-04-28T13:04:18.014Z,0.90
2019-04-28T13:07:03.446Z,0.82
2019-04-28T13:09:30.682Z,0.80
2019-04-28T13:11:58.909Z,1.05
2019-04-28T13:14:26.213Z,1.05
2019-04-28T13:16:53.428Z,0.80
2019-04-28T13:19:22.496Z,1.37
2019-04-28T13:21:49.624Z,1.00
2019-04-28T13:24:16.767Z,1.10
2019-04-28T13:26:43.987Z,1.15
2019-04-28T13:29:11.550Z,1.20
2019-04-28T13:31:38.710Z,1.22
2019-04-28T13:34:08.149Z,0.88
2019-04-28T13:36:35.376Z,1.27
2019-04-28T13:39:05.368Z,1.00
2019-04-28T13:41:32.839Z,1.22
2019-04-28T13:44:01.092Z,1.25
2019-04-28T13:46:28.584Z,1.00
2019-04-28T13:48:55.923Z,1.50
2019-04-28T13:51:22.851Z,1.25
2019-04-28T13:53:50.038Z,1.47
2019-04-28T13:56:17.457Z,1.22
2019-04-28T13:59:05.203Z,1.30
2019-04-28T14:01:52.495Z,1.17
2019-04-28T14:04:45.446Z,1.98
2019-04-28T14:07:12.418Z,1.60
2019-04-28T14:09:39.369Z,1.75
2019-04-28T14:12:06.540Z,1.12
2019-04-28T14:14:34.051Z,1.50
2019-04-28T14:17:01.160Z,1.25
2019-04-28T14:19:28.339Z,1.30
2019-04-28T14:21:56.390Z,1.50
2019-04-28T14:24:23.423Z,1.50
2019-04-28T14:26:50.652Z,1.37
2019-04-28T14:29:18.285Z,1.30
2019-04-28T14:31:45.489Z,1.40
2019-04-28T14:34:13.024Z,1.42
2019-04-28T14:36:42.412Z,1.20
2019-04-28T14:39:09.501Z,1.47
2019-04-28T14:41:36.926Z,1.80
2019-04-28T14:44:04.866Z,1.32
2019-04-28T14:46:32.040Z,1.35
2019-04-28T14:49:00.254Z,1.35
2019-04-28T14:51:28.124Z,1.60
2019-04-28T14:53:55.777Z,1.30
2019-04-28T14:56:22.612Z,1.30
2019-04-28T14:58:50.344Z,1.75
2019-04-28T15:01:37.406Z,1.65
2019-04-28T15:04:11.572Z,1.70
2019-04-28T15:06:55.136Z,1.30
2019-04-28T15:09:36.094Z,1.40
2019-04-28T15:12:05.897Z,1.40
2019-04-28T15:14:32.839Z,1.50
2019-04-28T15:17:00.967Z,1.20
2019-04-28T15:19:28.068Z,1.37
2019-04-28T15:21:55.057Z,1.70
2019-04-28T15:24:22.269Z,1.25
2019-04-28T15:26:49.418Z,1.57
2019-04-28T15:29:17.153Z,1.30
2019-04-28T15:31:44.215Z,1.32
2019-04-28T15:34:11.700Z,1.32
2019-04-28T15:39:06.763Z,1.80
2019-04-28T15:41:33.840Z,1.30
2019-04-28T15:44:02.264Z,1.17
2019-04-28T15:46:29.653Z,1.62
2019-04-28T15:48:56.840Z,1.67
2019-04-28T15:51:24.055Z,1.30
2019-04-28T15:53:51.052Z,1.32
2019-04-28T15:56:32.860Z,1.20
2019-04-28T15:59:00.204Z,1.22
2019-04-28T16:01:28.218Z,1.27
2019-04-28T16:08:48.561Z,1.00
2019-04-28T16:19:05.248Z,1.00
2019-04-28T16:21:48.781Z,0.93
2019-04-28T16:24:23.290Z,1.12
2019-04-28T16:26:58.895Z,1.37
2019-04-28T16:29:40.533Z,1.50
2019-04-28T16:32:11.277Z,1.17
2019-04-28T16:37:09.796Z,1.55
2019-04-28T16:39:38.106Z,1.30
2019-04-28T16:42:14.444Z,1.27
2019-04-28T16:44:44.890Z,1.30
2019-04-28T16:47:11.951Z,1.20
2019-04-28T16:49:40.131Z,1.60
2019-04-28T16:52:07.146Z,1.70
2019-04-28T16:54:34.541Z,1.30
2019-04-28T16:57:13.683Z,1.40
2019-04-28T17:00:01.313Z,1.70
2019-04-28T17:02:34.226Z,1.40
2019-04-28T17:05:01.324Z,1.50
2019-04-28T17:07:28.448Z,1.30
2019-04-28T17:09:55.629Z,1.40
2019-04-28T17:12:23.765Z,1.80
2019-04-28T17:14:50.946Z,1.40
2019-04-28T17:17:18.198Z,1.22
2019-04-28T17:19:45.741Z,1.27
2019-04-28T17:22:13.420Z,1.20
2019-04-28T17:24:40.586Z,2.12
2019-04-28T17:27:17.648Z,1.90
2019-04-28T17:29:56.940Z,2.00
2019-04-28T17:32:34.412Z,2.22
2019-04-28T17:34:59.857Z,2.10
2019-04-28T17:37:29.863Z,1.57
2019-04-28T17:40:08.943Z,1.47
2019-04-28T17:42:43.972Z,1.90
2019-04-28T17:45:11.311Z,1.85
2019-04-28T17:47:55.666Z,1.70
2019-04-28T17:50:31.745Z,2.20
2019-04-28T17:53:01.753Z,2.35
2019-04-28T17:55:40.004Z,2.10
2019-04-28T18:04:02.429Z,2.10
2019-04-28T18:06:30.806Z,2.20
2019-04-28T18:13:51.721Z,1.98
2019-04-28T18:16:32.086Z,2.10
2019-04-28T18:19:02.152Z,2.22
2019-04-28T18:21:29.189Z,1.70
2019-04-28T18:26:22.795Z,2.08
2019-04-28T18:28:50.593Z,2.25
2019-04-28T18:31:35.428Z,2.22
2019-04-28T18:34:28.037Z,2.40
2019-04-28T18:37:14.036Z,2.60
2019-04-28T18:39:59.344Z,2.47
2019-04-28T18:42:48.127Z,2.80
2019-04-28T18:45:15.394Z,2.58
2019-04-28T18:47:42.955Z,2.98
2019-04-28T18:50:10.413Z,3.10
2019-04-28T18:52:37.413Z,2.50
2019-04-28T18:55:05.629Z,2.72
2019-04-28T18:57:32.672Z,2.95
2019-04-28T19:00:01.849Z,2.77
2019-04-28T19:02:42.796Z,2.55
2019-04-28T19:05:10.600Z,2.92
2019-04-28T19:07:57.496Z,2.92
2019-04-28T19:10:34.444Z,2.17
2019-04-28T19:13:06.683Z,1.92
2019-04-28T19:15:51.617Z,1.82
2019-04-28T19:18:26.402Z,2.08
2019-04-28T19:20:54.264Z,2.02
2019-04-28T19:23:21.798Z,1.57
2019-04-28T19:25:48.939Z,2.25
2019-04-28T19:28:17.193Z,2.20
2019-04-28T19:30:55.750Z,2.02
2019-04-28T19:33:58.845Z,2.30
2019-04-28T19:35:57.650Z,2.22
2019-04-28T19:38:27.512Z,2.15
2019-04-28T19:40:54.604Z,2.70
2019-04-28T19:43:21.895Z,2.50
2019-04-28T19:45:50.985Z,2.58
2019-04-28T19:48:18.177Z,2.42
2019-04-28T19:50:45.401Z,2.12
2019-04-28T19:53:19.203Z,2.33
